Waveland, Indiana
Current Conditions -  °F | °C
As of 8:35 PM on Sunday 23 Nov 2014 (Local Time) from K4I7 Reporting Station
Moderate Rain Moderate Rain  
Wind Chill: 50°   Ceiling: 400
Heat Index: 50°   Visibility: 2.5mi
Dew Point: 50°   Wind: 6mph
Humidity: 100%   Direction: 130°SE
Pressure: 29.28"   Gusts: NA
Location:  39.88°N, 87.04°W
Report Text: K4I7 240135Z AUTO 13005KT 2 1/2SM RA BKN004 OVC013 10/10 A2928 RMK AO2 P0023
Loading
Personal Weather Stations






























Interactive Weather Map New forecast layout! Learn more

10-Day Weather Forecast

Advertisements
Track Severe Weather on mobile